Time;durP1;ratioP1;P1;durP2;ratioP2;P2;SDS_P1;SDS_P2;PMS_P1;PMS_P2;Temp;Humidity;BMP_temperature;BMP_pressure;BME280_temperature;BME280_humidity;BME280_pressure;Samples;Min_cycle;Max_cycle;Signal;HPM_P1;HPM_P2
2021/08/02 00:00:48;;;;;;;33.95;15.85;;;;;;;14.09;100.00;100778.38;5063217;28;20040;-64
2021/08/02 00:03:19;;;;;;;37.47;16.48;;;;;;;14.09;100.00;100783.75;5067552;28;20059;-64
2021/08/02 00:05:48;;;;;;;25.70;14.82;;;;;;;14.04;100.00;100786.16;5066155;28;20486;-65
2021/08/02 00:08:21;;;;;;;26.95;14.30;;;;;;;13.99;100.00;100782.34;5069808;28;20259;-65
2021/08/02 00:10:50;;;;;;;28.60;14.57;;;;;;;14.02;100.00;100779.28;5063927;28;20045;-64
2021/08/02 00:13:29;;;;;;;27.52;15.50;;;;;;;13.86;100.00;100783.00;5067968;28;20067;-63
2021/08/02 00:15:58;;;;;;;26.92;14.43;;;;;;;13.84;100.00;100774.31;5069493;28;20113;-64
2021/08/02 00:18:27;;;;;;;33.42;16.00;;;;;;;13.76;100.00;100778.78;5066563;28;20471;-63
2021/08/02 00:20:56;;;;;;;56.42;19.92;;;;;;;13.70;100.00;100774.13;5063784;28;20435;-64
2021/08/02 00:23:36;;;;;;;41.03;17.75;;;;;;;13.68;100.00;100776.16;5064639;28;20036;-64
2021/08/02 00:26:04;;;;;;;38.53;17.10;;;;;;;13.69;100.00;100783.19;5064902;28;20043;-63
2021/08/02 00:28:34;;;;;;;32.75;15.95;;;;;;;13.67;100.00;100782.56;5069295;28;20113;-65
2021/08/02 00:31:02;;;;;;;39.70;16.65;;;;;;;13.66;100.00;100778.19;5063914;28;20052;-64
2021/08/02 00:33:33;;;;;;;35.40;17.30;;;;;;;13.67;100.00;100777.19;5066806;28;20256;-64
2021/08/02 00:36:05;;;;;;;42.45;17.45;;;;;;;13.63;100.00;100783.94;5068767;28;20042;-64
2021/08/02 00:38:36;;;;;;;28.67;15.25;;;;;;;13.77;100.00;100783.09;5062988;28;20129;-64
2021/08/02 00:41:37;;;;;;;35.90;16.30;;;;;;;13.88;100.00;100776.44;5066088;28;20496;-62
2021/08/02 00:44:39;;;;;;;42.00;17.27;;;;;;;13.90;100.00;100773.56;5043002;28;20048;-64
2021/08/02 00:47:11;;;;;;;40.15;16.88;;;;;;;13.94;100.00;100780.22;5063702;28;20151;-64
2021/08/02 00:49:40;;;;;;;47.53;18.58;;;;;;;13.84;100.00;100774.31;5067913;28;20036;-65
2021/08/02 00:52:10;;;;;;;51.67;18.55;;;;;;;13.95;100.00;100782.72;5064342;28;20048;-65
2021/08/02 00:54:39;;;;;;;98.03;26.48;;;;;;;14.00;100.00;100778.66;5066047;28;20049;-64
2021/08/02 00:57:07;;;;;;;133.30;29.35;;;;;;;13.96;100.00;100786.25;5066581;28;20383;-64
2021/08/02 00:59:37;;;;;;;51.08;19.30;;;;;;;13.95;100.00;100782.72;5061811;28;20044;-64
2021/08/02 01:02:06;;;;;;;118.18;22.65;;;;;;;13.97;100.00;100779.03;5065069;28;20106;-64
2021/08/02 01:04:36;;;;;;;61.38;20.52;;;;;;;13.85;100.00;100775.97;5064284;28;20036;-65
2021/08/02 01:07:08;;;;;;;37.60;16.17;;;;;;;13.91;100.00;100778.75;5068097;28;20374;-64
2021/08/02 01:09:37;;;;;;;79.70;22.13;;;;;;;13.92;100.00;100779.56;5064854;28;20048;-64
2021/08/02 01:12:07;;;;;;;35.67;16.00;;;;;;;13.94;100.00;100782.91;5061140;28;20043;-64
2021/08/02 01:14:38;;;;;;;40.78;16.50;;;;;;;13.94;100.00;100781.06;5067607;28;20037;-64
2021/08/02 01:17:07;;;;;;;31.60;15.18;;;;;;;13.95;100.00;100779.22;5065011;28;20448;-65
2021/08/02 01:19:35;;;;;;;48.50;18.50;;;;;;;13.93;100.00;100776.72;5065989;28;20267;-64
2021/08/02 01:22:05;;;;;;;56.50;19.27;;;;;;;13.93;100.00;100787.47;5044248;28;20052;-64
2021/08/02 01:24:36;;;;;;;45.38;18.17;;;;;;;14.00;100.00;100786.72;5063188;28;20040;-64
2021/08/02 01:27:52;;;;;;;36.33;16.63;;;;;;;14.05;100.00;100787.81;5069199;28;20055;-64
2021/08/02 01:30:23;;;;;;;43.58;17.58;;;;;;;14.02;100.00;100788.19;5005856;28;20050;-64
2021/08/02 01:32:52;;;;;;;37.00;16.60;;;;;;;14.04;100.00;100783.47;5005494;28;20369;-64
2021/08/02 01:35:20;;;;;;;36.63;16.23;;;;;;;14.02;100.00;100781.97;5036181;28;20351;-64
2021/08/02 01:37:49;;;;;;;30.50;14.48;;;;;;;14.05;100.00;100787.81;5064133;28;20479;-65
2021/08/02 01:40:18;;;;;;;43.13;17.30;;;;;;;14.06;100.00;100778.75;5060844;28;20056;-64
2021/08/02 01:42:46;;;;;;;42.63;17.98;;;;;;;14.12;100.00;100782.53;5067022;28;20048;-64
2021/08/02 01:45:15;;;;;;;43.72;17.75;;;;;;;14.16;100.00;100782.97;5065663;28;20086;-65
2021/08/02 01:48:02;;;;;;;36.22;16.83;;;;;;;14.20;100.00;100786.97;5067656;28;20110;-65
2021/08/02 01:50:38;;;;;;;41.33;17.05;;;;;;;14.24;100.00;100789.06;5066152;28;20055;-65
2021/08/02 01:53:13;;;;;;;31.05;15.02;;;;;;;14.24;100.00;100791.75;5066065;28;20051;-64
2021/08/02 01:55:47;;;;;;;122.27;32.07;;;;;;;13.99;100.00;100802.00;5066066;28;20412;-63
2021/08/02 01:58:16;;;;;;;52.45;20.45;;;;;;;14.04;100.00;100796.88;5050012;28;20040;-64
2021/08/02 02:00:48;;;;;;;32.22;15.82;;;;;;;13.91;100.00;100797.53;5063750;28;20309;-64
2021/08/02 02:03:19;;;;;;;23.33;12.43;;;;;;;13.78;100.00;100778.59;5066016;28;20431;-65
2021/08/02 02:05:52;;;;;;;17.85;11.25;;;;;;;13.88;100.00;100781.81;5064191;28;20037;-63
2021/08/02 02:08:22;;;;;;;17.02;9.05;;;;;;;13.83;100.00;100778.03;5071340;28;20048;-65
2021/08/02 02:10:54;;;;;;;16.98;8.70;;;;;;;13.83;100.00;100781.53;5062987;28;20044;-64
2021/08/02 02:13:26;;;;;;;12.85;8.45;;;;;;;13.90;100.00;100782.44;5066129;28;20040;-64
2021/08/02 02:15:56;;;;;;;20.42;10.13;;;;;;;13.83;100.00;100780.69;5066253;28;20067;-65
2021/08/02 02:18:26;;;;;;;19.92;10.38;;;;;;;13.76;100.00;100778.78;5061368;28;20049;-65
2021/08/02 02:20:54;;;;;;;20.23;10.93;;;;;;;13.80;100.00;100781.06;5065866;28;20060;-65
2021/08/02 02:23:22;;;;;;;26.35;11.82;;;;;;;13.74;100.00;100778.09;5063651;28;20075;-66
2021/08/02 02:25:52;;;;;;;19.20;10.90;;;;;;;13.77;100.00;100775.03;5063941;28;20439;-69
2021/08/02 02:28:21;;;;;;;17.73;9.07;;;;;;;13.84;100.00;100768.97;5065581;28;20049;-65
2021/08/02 02:30:50;;;;;;;23.75;12.52;;;;;;;13.85;100.00;100774.13;5064716;28;20048;-64
2021/08/02 02:33:18;;;;;;;19.77;9.93;;;;;;;13.89;100.00;100771.91;5069417;28;20044;-65
2021/08/02 02:35:47;;;;;;;17.75;9.27;;;;;;;13.91;100.00;100775.25;5064445;28;20037;-65
2021/08/02 02:38:16;;;;;;;18.50;9.85;;;;;;;13.78;100.00;100776.72;5067335;28;20044;-65
2021/08/02 02:40:45;;;;;;;19.40;9.02;;;;;;;13.80;100.00;100771.16;5059111;28;20098;-65
2021/08/02 02:43:15;;;;;;;19.45;8.70;;;;;;;13.67;100.00;100776.34;5066659;28;20309;-64
2021/08/02 02:45:45;;;;;;;13.18;7.05;;;;;;;13.57;100.00;100765.91;5069107;28;20032;-64
2021/08/02 02:48:15;;;;;;;14.07;6.35;;;;;;;13.53;100.00;100770.78;5066931;28;20048;-64
2021/08/02 02:50:45;;;;;;;13.05;6.35;;;;;;;13.50;100.00;100767.66;5064903;28;20428;-64
2021/08/02 02:53:13;;;;;;;17.00;7.00;;;;;;;13.43;100.00;100768.38;5068886;28;20056;-65
2021/08/02 02:55:42;;;;;;;13.93;6.13;;;;;;;13.47;100.00;100762.63;5065106;28;20037;-65
2021/08/02 02:58:10;;;;;;;15.52;5.70;;;;;;;13.50;100.00;100768.47;5072271;28;20045;-64
2021/08/02 03:00:40;;;;;;;10.07;5.45;;;;;;;13.52;100.00;100766.41;5063451;28;20094;-65
2021/08/02 03:03:09;;;;;;;12.68;5.35;;;;;;;13.56;100.00;100765.03;5066800;28;20133;-65
2021/08/02 03:05:39;;;;;;;14.80;6.05;;;;;;;13.64;100.00;100769.50;5064447;28;20037;-64
2021/08/02 03:08:08;;;;;;;9.38;4.95;;;;;;;13.51;100.00;100762.09;5068134;28;20048;-63
2021/08/02 03:10:36;;;;;;;7.85;4.10;;;;;;;13.54;100.00;100761.72;5062425;28;20053;-64
2021/08/02 03:13:04;;;;;;;10.93;5.38;;;;;;;13.41;100.00;100759.69;5066018;28;20036;-64
2021/08/02 03:15:34;;;;;;;10.90;4.70;;;;;;;13.37;100.00;100763.75;5068343;28;20045;-64
2021/08/02 03:18:03;;;;;;;8.13;4.68;;;;;;;13.47;100.00;100766.16;5070340;28;20040;-64
2021/08/02 03:20:31;;;;;;;11.18;4.75;;;;;;;13.49;100.00;100763.28;5066510;28;20391;-64
2021/08/02 03:23:04;;;;;;;11.55;4.90;;;;;;;13.43;100.00;100765.69;5068766;28;20048;-64
2021/08/02 03:25:36;;;;;;;10.82;4.78;;;;;;;13.52;100.00;100768.28;5066337;28;20297;-64
2021/08/02 03:28:07;;;;;;;13.95;5.05;;;;;;;13.58;100.00;100764.84;5070369;28;20040;-64
2021/08/02 03:30:37;;;;;;;11.18;4.65;;;;;;;13.52;100.00;100761.06;5063421;28;20052;-65
2021/08/02 03:33:09;;;;;;;11.82;5.18;;;;;;;13.47;100.00;100768.00;5068516;28;20036;-65
2021/08/02 03:35:38;;;;;;;12.35;5.55;;;;;;;13.43;100.00;100776.41;5066422;28;20419;-65
2021/08/02 03:38:06;;;;;;;9.90;5.05;;;;;;;13.45;100.00;100768.19;5064846;28;20052;-65
2021/08/02 03:40:34;;;;;;;12.48;4.57;;;;;;;13.48;100.00;100777.72;5061188;28;20340;-65
2021/08/02 03:43:02;;;;;;;11.15;5.55;;;;;;;13.46;100.00;100772.53;5068654;28;20094;-65
2021/08/02 03:45:31;;;;;;;9.82;4.85;;;;;;;13.56;100.00;100777.63;5067138;28;20048;-64
2021/08/02 03:47:59;;;;;;;10.85;5.75;;;;;;;13.56;100.00;100774.94;5068352;28;20389;-64
2021/08/02 03:50:28;;;;;;;11.68;5.30;;;;;;;13.57;100.00;100776.63;5062738;28;20360;-64
2021/08/02 03:52:56;;;;;;;11.60;5.60;;;;;;;13.45;100.00;100780.78;5067575;28;20590;-64
2021/08/02 03:55:25;;;;;;;11.02;5.47;;;;;;;13.54;100.00;100777.00;5065811;28;20083;-64
2021/08/02 03:57:53;;;;;;;10.63;4.78;;;;;;;13.43;100.00;100773.72;5065856;28;20098;-63
2021/08/02 04:00:22;;;;;;;13.77;5.13;;;;;;;13.46;100.00;100777.06;5068593;28;20045;-64
2021/08/02 04:02:50;;;;;;;9.15;4.55;;;;;;;13.48;100.00;100778.56;5065771;28;20442;-65
2021/08/02 04:05:18;;;;;;;11.77;4.82;;;;;;;13.35;100.00;100787.22;5069823;28;20040;-65
2021/08/02 04:07:47;;;;;;;11.35;5.03;;;;;;;13.39;100.00;100793.88;5065040;28;20041;-65
2021/08/02 04:10:16;;;;;;;11.70;5.93;;;;;;;13.36;100.00;100788.88;5066190;28;20110;-64
2021/08/02 04:12:44;;;;;;;12.43;4.50;;;;;;;13.39;100.00;100793.88;5063407;28;20439;-63
2021/08/02 04:15:12;;;;;;;11.80;4.47;;;;;;;13.37;100.00;100793.25;5079361;28;20041;-65
2021/08/02 04:17:40;;;;;;;9.27;4.13;;;;;;;13.35;100.00;100789.91;5258174;22;20041;-69
2021/08/02 04:20:09;;;;;;;7.57;4.03;;;;;;;13.40;100.00;100806.28;5067759;28;20052;-70
2021/08/02 04:22:37;;;;;;;12.48;5.13;;;;;;;13.21;100.00;100802.25;5067338;28;20182;-70
2021/08/02 04:25:08;;;;;;;13.70;5.07;;;;;;;13.15;100.00;100802.94;5068051;28;20056;-68
2021/08/02 04:27:36;;;;;;;12.35;4.82;;;;;;;13.10;100.00;100813.41;5072220;28;20093;-68
2021/08/02 04:30:05;;;;;;;12.90;5.63;;;;;;;13.06;100.00;100812.91;5069909;28;20067;-68
2021/08/02 04:32:32;;;;;;;12.23;5.38;;;;;;;13.07;100.00;100816.44;5065241;28;20032;-69
2021/08/02 04:35:00;;;;;;;11.55;4.65;;;;;;;13.04;100.00;100814.94;5071248;28;20120;-71
2021/08/02 04:37:28;;;;;;;12.98;5.35;;;;;;;13.08;100.00;100821.63;5072934;28;20049;-68
2021/08/02 04:39:57;;;;;;;13.00;6.22;;;;;;;13.02;100.00;100822.31;5069010;28;20103;-68
2021/08/02 04:42:26;;;;;;;16.40;5.55;;;;;;;12.98;100.00;100823.69;5070829;28;20086;-69
2021/08/02 04:44:54;;;;;;;16.48;6.90;;;;;;;12.92;100.00;100832.47;5071399;28;20376;-70
2021/08/02 04:47:22;;;;;;;12.27;5.90;;;;;;;12.89;100.00;100840.84;5066193;28;20436;-70
2021/08/02 04:49:50;;;;;;;15.88;5.97;;;;;;;12.92;100.00;100843.19;5070823;28;20041;-69
2021/08/02 04:52:19;;;;;;;16.60;6.40;;;;;;;12.95;100.00;100839.31;5069806;28;20098;-70
2021/08/02 04:54:47;;;;;;;14.30;5.72;;;;;;;12.89;100.00;100848.91;5067952;28;20114;-69
2021/08/02 04:57:15;;;;;;;16.30;6.05;;;;;;;12.95;100.00;100844.66;5067850;28;20044;-68
2021/08/02 04:59:44;;;;;;;11.05;5.50;;;;;;;12.97;100.00;100840.81;5070441;28;20052;-71
2021/08/02 05:02:12;;;;;;;12.50;5.93;;;;;;;13.12;100.00;100834.66;5067491;28;20492;-70
2021/08/02 05:04:40;;;;;;;12.60;6.22;;;;;;;13.14;100.00;100848.72;5068355;28;20335;-70
2021/08/02 05:07:08;;;;;;;15.20;6.38;;;;;;;13.11;100.00;100843.72;5069427;28;20098;-70
2021/08/02 05:09:36;;;;;;;15.07;6.65;;;;;;;13.18;100.00;100848.19;5067826;28;20098;-67
2021/08/02 05:12:05;;;;;;;15.02;5.53;;;;;;;13.27;100.00;100848.97;5068424;28;20044;-68
2021/08/02 05:14:32;;;;;;;14.23;6.18;;;;;;;13.28;100.00;100850.59;5073379;28;20040;-68
2021/08/02 05:17:02;;;;;;;12.23;6.15;;;;;;;13.30;100.00;100847.75;5069033;28;20037;-68
2021/08/02 05:19:30;;;;;;;16.10;6.38;;;;;;;13.31;100.00;100847.59;5068755;28;20040;-68
2021/08/02 05:21:58;;;;;;;10.52;5.00;;;;;;;13.46;100.00;100842.28;5068526;28;20048;-70
2021/08/02 05:24:25;;;;;;;12.77;5.72;;;;;;;13.47;100.00;100835.06;5064968;28;20094;-70
2021/08/02 05:26:53;;;;;;;15.43;5.97;;;;;;;13.38;100.00;100828.94;5068311;28;20094;-70
2021/08/02 05:29:21;;;;;;;11.40;5.55;;;;;;;13.35;100.00;100838.16;5070181;28;20090;-70
2021/08/02 05:31:49;;;;;;;17.70;5.65;;;;;;;13.31;100.00;100844.06;5070643;28;20051;-71
2021/08/02 05:34:18;;;;;;;14.00;5.28;;;;;;;13.27;100.00;100838.22;5067463;28;20060;-70
2021/08/02 05:36:46;;;;;;;13.18;5.25;;;;;;;13.31;100.00;100838.69;5070168;28;20477;-68
2021/08/02 05:39:14;;;;;;;13.05;5.22;;;;;;;13.26;100.00;100840.06;5071525;28;20059;-70
2021/08/02 05:41:42;;;;;;;10.38;4.57;;;;;;;13.08;100.00;100843.06;5068369;28;20447;-70
2021/08/02 05:44:13;;;;;;;9.98;4.30;;;;;;;13.13;100.00;100847.06;5067074;28;20055;-70
2021/08/02 05:46:41;;;;;;;10.00;4.45;;;;;;;13.13;100.00;100845.22;5067304;28;20037;-69
2021/08/02 05:49:09;;;;;;;10.48;4.45;;;;;;;13.17;100.00;100846.53;5066091;28;20040;-70
2021/08/02 05:51:38;;;;;;;6.78;3.70;;;;;;;13.22;100.00;100840.63;5065591;28;20119;-69
2021/08/02 05:54:06;;;;;;;7.20;3.30;;;;;;;13.23;100.00;100836.91;5069294;28;20040;-70
2021/08/02 05:56:34;;;;;;;8.15;4.10;;;;;;;13.13;100.00;100833.66;5066796;28;20045;-70
2021/08/02 05:59:02;;;;;;;6.85;3.78;;;;;;;13.16;100.00;100836.81;5068917;28;20059;-69
2021/08/02 06:01:30;;;;;;;9.32;3.92;;;;;;;13.16;100.00;100842.16;5066738;28;20044;-70
2021/08/02 06:03:58;;;;;;;11.05;3.83;;;;;;;13.22;100.00;100843.28;5070243;28;20048;-69
2021/08/02 06:06:26;;;;;;;8.02;3.97;;;;;;;13.03;100.00;100837.41;5069479;28;20094;-70
2021/08/02 06:08:55;;;;;;;8.00;3.58;;;;;;;13.13;100.00;100841.69;5071202;28;20090;-70
2021/08/02 06:11:23;;;;;;;7.80;4.20;;;;;;;13.21;100.00;100849.66;5066233;28;20044;-70
2021/08/02 06:13:51;;;;;;;6.65;3.55;;;;;;;13.18;100.00;100844.66;5070164;28;20048;-70
2021/08/02 06:16:21;;;;;;;9.40;3.70;;;;;;;13.01;100.00;100852.00;5072223;28;20329;-70
2021/08/02 06:19:03;;;;;;;13.18;4.00;;;;;;;13.17;100.00;100856.38;5070140;28;20062;-70
2021/08/02 06:21:31;;;;;;;7.65;3.95;;;;;;;13.03;100.00;100847.31;5077115;28;20040;-70
2021/08/02 06:24:00;;;;;;;9.35;3.42;;;;;;;13.08;100.00;100861.84;5076175;28;20666;-70
2021/08/02 06:26:30;;;;;;;7.45;3.50;;;;;;;13.11;100.00;100867.84;5074458;28;20040;-70
2021/08/02 06:28:58;;;;;;;4.93;3.10;;;;;;;13.08;100.00;100867.19;5073143;28;20045;-70
2021/08/02 06:31:26;;;;;;;5.35;3.53;;;;;;;13.14;100.00;100864.78;5071882;28;20051;-70
2021/08/02 06:33:54;;;;;;;5.45;2.95;;;;;;;13.22;100.00;100864.75;5077563;28;20041;-70
2021/08/02 06:36:22;;;;;;;7.07;2.97;;;;;;;13.25;100.00;100869.75;5074799;28;20113;-70
2021/08/02 06:38:50;;;;;;;7.10;3.45;;;;;;;13.37;100.00;100868.34;5072674;28;20044;-70
2021/08/02 06:41:19;;;;;;;7.90;3.35;;;;;;;13.18;100.00;100871.47;5076209;28;20098;-70
2021/08/02 06:43:47;;;;;;;8.55;3.45;;;;;;;13.26;100.00;100869.56;5075693;28;20044;-70
2021/08/02 06:46:15;;;;;;;7.53;3.55;;;;;;;13.21;100.00;100877.31;5073061;28;20044;-70
2021/08/02 06:48:43;;;;;;;6.30;3.00;;;;;;;13.21;100.00;100876.47;5075461;28;20040;-70
2021/08/02 06:51:12;;;;;;;5.70;2.70;;;;;;;13.45;100.00;100871.97;5072427;28;20428;-69
2021/08/02 06:53:39;;;;;;;6.35;2.63;;;;;;;13.34;100.00;100875.88;5073438;28;20052;-69
2021/08/02 06:56:07;;;;;;;4.07;2.70;;;;;;;13.37;100.00;100875.56;5073656;28;20643;-69
2021/08/02 06:58:37;;;;;;;5.75;3.08;;;;;;;13.33;100.00;100879.59;5071461;28;20121;-68
2021/08/02 07:01:05;;;;;;;6.90;3.22;;;;;;;13.56;100.00;100883.09;5075009;28;20458;-69
2021/08/02 07:03:33;;;;;;;4.45;2.58;;;;;;;13.58;100.00;100880.22;5075926;28;20317;-69
2021/08/02 07:06:01;;;;;;;7.57;3.20;;;;;;;13.42;100.00;100882.06;5072296;28;20068;-69
2021/08/02 07:08:29;;;;;;;7.13;3.30;;;;;;;13.59;100.00;100874.72;5072874;28;20048;-68
2021/08/02 07:10:57;;;;;;;5.50;2.88;;;;;;;13.67;100.00;100881.84;5071939;28;20044;-69
2021/08/02 07:13:25;;;;;;;5.40;2.72;;;;;;;13.90;100.00;100881.75;5072218;28;20436;-70
2021/08/02 07:15:55;;;;;;;4.35;2.78;;;;;;;14.06;100.00;100875.41;5067815;28;20053;-71
2021/08/02 07:18:23;;;;;;;4.93;3.17;;;;;;;13.78;100.00;100883.25;5069833;28;20052;-68
2021/08/02 07:20:51;;;;;;;8.45;3.67;;;;;;;13.87;100.00;100882.13;5073772;28;20040;-68
2021/08/02 07:23:19;;;;;;;6.38;3.03;;;;;;;14.00;100.00;100876.13;5075595;28;20043;-68
2021/08/02 07:25:47;;;;;;;6.63;2.65;;;;;;;14.17;100.00;100879.47;5071091;28;20037;-69
2021/08/02 07:28:15;;;;;;;7.00;2.70;;;;;;;14.23;100.00;100873.38;5075959;28;20055;-70
2021/08/02 07:30:42;;;;;;;4.75;2.92;;;;;;;14.33;100.00;100877.63;5070661;28;20041;-69
2021/08/02 07:33:12;;;;;;;6.97;3.00;;;;;;;14.42;100.00;100868.44;5070867;28;20480;-68
2021/08/02 07:35:40;;;;;;;5.13;2.88;;;;;;;14.56;100.00;100874.81;5072502;28;20055;-70
2021/08/02 07:38:08;;;;;;;6.93;2.45;;;;;;;14.61;100.00;100867.03;5073389;28;20101;-69
2021/08/02 07:40:36;;;;;;;5.53;3.25;;;;;;;14.52;100.00;100868.16;5067336;28;20080;-69
2021/08/02 07:43:04;;;;;;;5.88;3.05;;;;;;;14.53;100.00;100870.66;5071888;28;20040;-69
2021/08/02 07:45:32;;;;;;;5.60;2.78;;;;;;;14.63;100.00;100860.47;5075664;28;20048;-69
2021/08/02 07:47:59;;;;;;;4.03;2.47;;;;;;;14.88;100.00;100860.13;5067711;28;20040;-70
2021/08/02 07:50:29;;;;;;;5.50;3.25;;;;;;;14.97;100.00;100850.09;5072422;28;20040;-70
2021/08/02 07:52:57;;;;;;;3.72;2.65;;;;;;;15.28;100.00;100855.16;5072156;28;20044;-68
2021/08/02 07:55:25;;;;;;;4.90;2.58;;;;;;;15.34;100.00;100858.91;5071259;28;20044;-68
2021/08/02 07:57:55;;;;;;;6.60;2.90;;;;;;;15.75;100.00;100865.44;5069204;28;20040;-68
2021/08/02 08:00:23;;;;;;;5.57;3.25;;;;;;;15.44;100.00;100856.72;5073675;28;20052;-68
2021/08/02 08:02:51;;;;;;;5.18;2.92;;;;;;;15.61;100.00;100851.88;5071027;28;20043;-66
2021/08/02 08:05:20;;;;;;;6.10;2.90;;;;;;;15.66;100.00;100852.16;5070643;28;20136;-70
2021/08/02 08:07:51;;;;;;;5.18;3.10;;;;;;;15.74;100.00;100848.47;5067603;28;20041;-71
2021/08/02 08:10:20;;;;;;;7.82;3.58;;;;;;;15.95;100.00;100846.78;5061001;28;20048;-72
2021/08/02 08:12:49;;;;;;;7.57;4.13;;;;;;;16.13;100.00;100868.63;5070695;28;20059;-69
2021/08/02 08:15:18;;;;;;;6.88;3.63;;;;;;;16.47;100.00;100858.84;5069712;28;20052;-69
2021/08/02 08:17:46;;;;;;;6.43;3.78;;;;;;;16.39;100.00;100850.94;5071140;28;20044;-71
2021/08/02 08:20:18;;;;;;;6.22;3.22;;;;;;;16.75;100.00;100855.19;5067891;28;20048;-70
2021/08/02 08:22:46;;;;;;;6.18;3.90;;;;;;;16.81;100.00;100856.25;5067100;28;20036;-69
2021/08/02 08:25:16;;;;;;;4.88;3.30;;;;;;;16.94;100.00;100859.03;5065736;28;20350;-70
2021/08/02 08:27:45;;;;;;;7.03;4.25;;;;;;;16.77;100.00;100863.94;5066515;28;20493;-70
2021/08/02 08:30:14;;;;;;;6.88;4.05;;;;;;;17.04;100.00;100861.31;5064671;28;20440;-71
2021/08/02 08:32:42;;;;;;;8.02;3.90;;;;;;;17.45;100.00;100860.31;5060438;28;20052;-70
2021/08/02 08:35:13;;;;;;;7.03;4.45;;;;;;;17.42;100.00;100857.19;5057216;28;20075;-69
2021/08/02 08:37:41;;;;;;;8.85;4.32;;;;;;;17.67;100.00;100849.31;5062153;28;20041;-71
2021/08/02 08:40:13;;;;;;;7.68;4.53;;;;;;;17.79;100.00;100849.47;5065030;28;20505;-69
2021/08/02 08:42:43;;;;;;;6.25;4.10;;;;;;;18.39;100.00;100846.66;5061645;28;20048;-69
2021/08/02 08:45:13;;;;;;;5.13;3.28;;;;;;;18.55;100.00;100848.84;5068473;28;20131;-70
2021/08/02 08:47:41;;;;;;;7.53;4.20;;;;;;;18.46;100.00;100854.75;5066160;28;20037;-70
2021/08/02 08:50:10;;;;;;;6.53;2.95;;;;;;;18.12;100.00;100848.63;5066523;28;20375;-67
2021/08/02 08:52:39;;;;;;;6.60;4.05;;;;;;;18.39;100.00;100863.69;5065285;28;20052;-68
2021/08/02 08:55:09;;;;;;;7.15;3.92;;;;;;;17.37;100.00;100882.94;5058600;28;20056;-69
2021/08/02 08:57:37;;;;;;;7.45;3.58;;;;;;;17.64;100.00;100884.81;5068473;28;20335;-70
2021/08/02 09:00:18;;;;;;;7.45;3.42;;;;;;;19.63;100.00;100869.84;5067086;28;20052;-70
2021/08/02 09:02:46;;;;;;;5.45;3.50;;;;;;;18.69;100.00;100873.16;5067285;28;20074;-71
2021/08/02 09:05:15;;;;;;;5.72;3.78;;;;;;;18.74;100.00;100876.88;5069831;28;20082;-71
2021/08/02 09:07:45;;;;;;;5.82;3.20;;;;;;;16.61;100.00;100886.66;5070685;28;20094;-70
2021/08/02 09:10:14;;;;;;;6.63;3.78;;;;;;;16.33;100.00;100897.53;5065534;28;20041;-70
2021/08/02 09:12:53;;;;;;;5.90;3.47;;;;;;;16.38;100.00;100895.06;5063182;28;20086;-70
2021/08/02 09:15:34;;;;;;;6.05;2.92;;;;;;;17.52;100.00;100890.84;5066176;28;20040;-71
2021/08/02 09:18:02;;;;;;;7.15;2.97;;;;;;;17.75;100.00;100877.94;5065462;28;20032;-70
2021/08/02 09:20:30;;;;;;;5.50;3.00;;;;;;;17.89;100.00;100877.72;5067683;28;20476;-70
2021/08/02 09:23:06;;;;;;;4.20;2.83;;;;;;;17.84;100.00;100882.94;5065039;28;20127;-71
2021/08/02 09:25:35;;;;;;;4.63;2.83;;;;;;;17.53;100.00;100873.59;5066888;28;20123;-71
2021/08/02 09:28:11;;;;;;;3.53;2.40;;;;;;;17.74;100.00;100877.13;5069700;28;20036;-70
2021/08/02 09:30:41;;;;;;;5.13;2.53;;;;;;;17.81;100.00;100877.94;5068231;28;20498;-71
2021/08/02 09:33:10;;;;;;;6.32;2.78;;;;;;;17.61;100.00;100871.75;5066615;28;20053;-70
2021/08/02 09:35:41;;;;;;;4.05;2.40;;;;;;;18.78;100.00;100877.25;5068104;28;20275;-70
2021/08/02 09:38:10;;;;;;;5.53;2.85;;;;;;;21.36;100.00;100857.94;5069074;28;20102;-70
2021/08/02 09:40:41;;;;;;;5.63;3.00;;;;;;;22.04;100.00;100853.00;5064811;28;20454;-71
2021/08/02 09:43:11;;;;;;;5.25;2.83;;;;;;;22.99;100.00;100848.94;5067678;28;20302;-71
2021/08/02 09:46:01;;;;;;;7.70;3.42;;;;;;;23.07;100.00;100852.31;5067087;28;20076;-71
2021/08/02 09:48:37;;;;;;;6.47;3.10;;;;;;;20.40;100.00;100850.47;5068775;28;20378;-71
2021/08/02 09:51:12;;;;;;;4.90;2.75;;;;;;;19.42;100.00;100866.44;5062831;28;20444;-72
2021/08/02 09:53:42;;;;;;;4.00;2.90;;;;;;;19.73;100.00;100862.03;5068120;28;20044;-73
2021/08/02 09:56:11;;;;;;;12.85;3.63;;;;;;;20.87;100.00;100860.78;5074812;28;20367;-72
2021/08/02 09:58:40;;;;;;;8.18;3.80;;;;;;;20.51;100.00;100852.44;5069785;28;20067;-74
2021/08/02 10:01:09;;;;;;;5.78;3.35;;;;;;;23.35;100.00;100846.81;5069068;28;20094;-73
2021/08/02 10:03:38;;;;;;;5.07;3.03;;;;;;;22.64;100.00;100849.06;5072961;28;20040;-72
2021/08/02 10:06:07;;;;;;;8.15;3.85;;;;;;;20.44;100.00;100868.81;5071399;28;20040;-71
2021/08/02 10:08:39;;;;;;;4.78;2.70;;;;;;;19.74;100.00;100858.28;5070524;28;20052;-71
2021/08/02 10:11:07;;;;;;;6.75;4.03;;;;;;;17.77;100.00;100868.59;5069377;28;20059;-71
2021/08/02 10:13:37;;;;;;;5.78;3.67;;;;;;;19.41;100.00;100865.63;5070720;28;20048;-72
2021/08/02 10:16:06;;;;;;;5.80;3.22;;;;;;;17.58;100.00;100864.03;5071963;28;20048;-72
2021/08/02 10:18:36;;;;;;;4.05;2.78;;;;;;;19.01;100.00;100860.53;5072436;28;20046;-72
2021/08/02 10:21:05;;;;;;;5.55;3.22;;;;;;;19.42;100.00;100869.16;5069501;28;20064;-71
2021/08/02 10:23:34;;;;;;;8.55;3.17;;;;;;;22.53;100.00;100862.47;5070905;28;20069;-72
2021/08/02 10:26:02;;;;;;;6.70;3.20;;;;;;;23.26;100.00;100864.63;5069255;28;20523;-70
2021/08/02 10:28:30;;;;;;;6.28;3.00;;;;;;;23.09;100.00;100869.22;5071866;28;20063;-72
2021/08/02 10:31:02;;;;;;;6.93;3.22;;;;;;;21.89;100.00;100862.47;5071135;28;20032;-71
2021/08/02 10:33:36;;;;;;;4.90;3.25;;;;;;;22.57;100.00;100868.28;5073221;28;20758;-73
2021/08/02 10:36:12;;;;;;;4.70;3.23;;;;;;;23.04;100.00;100868.06;5071192;28;20048;-72
2021/08/02 10:38:41;;;;;;;4.93;2.70;;;;;;;22.23;100.00;100867.25;5069532;28;20040;-73
2021/08/02 10:41:10;;;;;;;3.85;3.08;;;;;;;21.97;100.00;100875.72;5067977;28;20048;-73
2021/08/02 10:43:39;;;;;;;11.85;3.10;;;;;;;21.54;100.00;100865.19;5069805;28;20128;-72
2021/08/02 10:46:18;;;;;;;6.88;2.92;;;;;;;21.07;100.00;100864.00;5072161;28;20356;-72
2021/08/02 10:48:49;;;;;;;4.65;2.85;;;;;;;19.81;100.00;100863.66;5070876;28;20045;-73
2021/08/02 10:51:19;;;;;;;8.48;3.38;;;;;;;20.13;100.00;100867.91;5068382;28;20119;-71
2021/08/02 10:53:57;;;;;;;4.50;3.38;;;;;;;19.70;100.00;100870.59;5069923;28;20391;-72
2021/08/02 10:56:26;;;;;;;4.82;2.97;;;;;;;21.77;100.00;100867.91;5069428;28;20048;-72
2021/08/02 10:58:56;;;;;;;5.32;3.05;;;;;;;23.10;100.00;100865.44;5068942;28;20431;-73
2021/08/02 11:01:26;;;;;;;6.05;3.67;;;;;;;24.49;100.00;100864.78;5068931;28;20061;-73
2021/08/02 11:03:57;;;;;;;3.53;2.67;;;;;;;22.79;100.00;100864.88;5068501;28;20045;-71
2021/08/02 11:06:34;;;;;;;6.05;3.15;;;;;;;21.40;100.00;100869.97;5069530;28;20121;-71
2021/08/02 11:09:02;;;;;;;3.85;3.13;;;;;;;22.82;100.00;100856.22;5069233;28;20110;-73
2021/08/02 11:11:45;;;;;;;6.10;3.17;;;;;;;25.40;100.00;100853.16;5069879;28;20048;-72
2021/08/02 11:14:17;;;;;;;3.55;2.92;;;;;;;24.83;100.00;100859.16;5071625;28;20052;-71
2021/08/02 11:16:47;;;;;;;5.55;3.30;;;;;;;22.39;100.00;100852.94;5071627;28;20048;-73
2021/08/02 11:19:18;;;;;;;3.55;2.92;;;;;;;22.17;100.00;100844.56;5069787;28;20442;-73
2021/08/02 11:21:46;;;;;;;6.28;2.75;;;;;;;19.69;100.00;100849.97;5069558;28;20079;-73
2021/08/02 11:24:14;;;;;;;4.45;2.85;;;;;;;18.48;100.00;100844.53;5066709;28;20079;-72